EWG6PH LKPR-EDDH
Flight info
| Callsign | EWG6PH |
|---|---|
| Flight time | 1h 1m |
| Altitude | 34000 |
| Route | VENOX DCT DEKOV Y621 ESLOR M748 RARUP RARUP6A |
| Aircraft | A320/M-SDE3FGHIRWY/LB1 |
Departure
| Time | 2026-04-30 18:28 |
|---|---|
| Airport | Václav Havel Airport Prague (LKPR) |
Arrival
| Time | 2026-04-30 19:30 |
|---|---|
| Airport | Hamburg Helmut Schmidt Airport (EDDH) |
| Time | Latitude | Longitude | Altitude | Speed | Heading |
|---|---|---|---|---|---|
| 2026-04-30 17:57 | 50.10711 | 14.26326 | 1174 ft | 0 kts | 214° |
| 2026-04-30 18:18 | 50.10725 | 14.26342 | 1173 ft | 4 kts | 220° |
| 2026-04-30 18:19 | 50.10744 | 14.26371 | 1175 ft | 4 kts | 243° |
| 2026-04-30 18:19 | 50.10748 | 14.26406 | 1173 ft | 3 kts | 300° |
| 2026-04-30 18:19 | 50.10746 | 14.26411 | 1175 ft | 0 kts | 305° |
| 2026-04-30 18:22 | 50.10794 | 14.26305 | 1176 ft | 8 kts | 304° |
| 2026-04-30 18:22 | 50.10787 | 14.26238 | 1172 ft | 8 kts | 227° |
| 2026-04-30 18:23 | 50.10721 | 14.26165 | 1174 ft | 16 kts | 215° |
| 2026-04-30 18:23 | 50.10636 | 14.26075 | 1174 ft | 14 kts | 213° |
| 2026-04-30 18:23 | 50.10558 | 14.26000 | 1177 ft | 11 kts | 213° |
| 2026-04-30 18:23 | 50.10504 | 14.25986 | 1184 ft | 11 kts | 157° |
| 2026-04-30 18:24 | 50.10392 | 14.26201 | 1188 ft | 21 kts | 126° |
| 2026-04-30 18:24 | 50.10306 | 14.26382 | 1192 ft | 21 kts | 127° |
| 2026-04-30 18:24 | 50.10217 | 14.26565 | 1196 ft | 22 kts | 127° |
| 2026-04-30 18:25 | 50.10112 | 14.26783 | 1199 ft | 28 kts | 126° |
| 2026-04-30 18:25 | 50.09885 | 14.27259 | 1204 ft | 28 kts | 126° |
| 2026-04-30 18:25 | 50.09749 | 14.27477 | 1206 ft | 26 kts | 135° |
| 2026-04-30 18:26 | 50.09581 | 14.27631 | 1210 ft | 15 kts | 210° |
| 2026-04-30 18:26 | 50.09502 | 14.27537 | 1214 ft | 12 kts | 217° |
| 2026-04-30 18:26 | 50.09447 | 14.27477 | 1217 ft | 10 kts | 214° |
| 2026-04-30 18:27 | 50.09432 | 14.27370 | 1218 ft | 0 kts | 308° |
| 2026-04-30 18:28 | 50.09738 | 14.26739 | 1216 ft | 104 kts | 307° |
| 2026-04-30 18:28 | 50.10305 | 14.25581 | 1219 ft | 159 kts | 306° |
| 2026-04-30 18:28 | 50.11622 | 14.22852 | 2713 ft | 160 kts | 311° |
| 2026-04-30 18:29 | 50.12284 | 14.21467 | 3423 ft | 159 kts | 311° |
| 2026-04-30 18:29 | 50.14334 | 14.17232 | 4968 ft | 184 kts | 311° |
| 2026-04-30 18:30 | 50.16077 | 14.13631 | 5531 ft | 231 kts | 310° |
| 2026-04-30 18:30 | 50.18427 | 14.09598 | 6500 ft | 267 kts | 338° |
| 2026-04-30 18:31 | 50.20230 | 14.09136 | 7284 ft | 265 kts | 12° |
| 2026-04-30 18:31 | 50.23867 | 14.10273 | 9122 ft | 270 kts | 9° |
| 2026-04-30 18:32 | 50.27628 | 14.10954 | 10780 ft | 284 kts | 9° |
| 2026-04-30 18:32 | 50.29670 | 14.11317 | 11102 ft | 306 kts | 9° |
| 2026-04-30 18:32 | 50.34034 | 14.12058 | 12491 ft | 320 kts | 9° |
| 2026-04-30 18:33 | 50.36259 | 14.12432 | 13320 ft | 323 kts | 9° |
| 2026-04-30 18:33 | 50.40796 | 14.13208 | 14860 ft | 328 kts | 9° |
| 2026-04-30 18:33 | 50.43071 | 14.13600 | 15577 ft | 330 kts | 9° |
| 2026-04-30 18:34 | 50.45336 | 14.13991 | 16289 ft | 332 kts | 9° |
| 2026-04-30 18:34 | 50.49962 | 14.14792 | 17739 ft | 336 kts | 9° |
| 2026-04-30 18:34 | 50.52297 | 14.15194 | 18424 ft | 339 kts | 9° |
| 2026-04-30 18:35 | 50.54682 | 14.15605 | 19056 ft | 341 kts | 9° |
| 2026-04-30 18:35 | 50.57046 | 14.16013 | 19680 ft | 342 kts | 10° |
| 2026-04-30 18:35 | 50.59425 | 14.16424 | 20283 ft | 345 kts | 10° |
| 2026-04-30 18:36 | 50.64226 | 14.17245 | 21472 ft | 349 kts | 10° |
| 2026-04-30 18:36 | 50.66613 | 14.17656 | 22035 ft | 351 kts | 10° |
| 2026-04-30 18:36 | 50.71493 | 14.18491 | 23144 ft | 355 kts | 10° |
| 2026-04-30 18:37 | 50.73984 | 14.18919 | 23735 ft | 356 kts | 11° |
| 2026-04-30 18:37 | 50.76422 | 14.19337 | 24231 ft | 358 kts | 11° |
| 2026-04-30 18:37 | 50.78906 | 14.19766 | 24687 ft | 360 kts | 11° |
| 2026-04-30 18:37 | 50.81433 | 14.20200 | 25140 ft | 362 kts | 10° |
| 2026-04-30 18:38 | 50.83946 | 14.20088 | 25535 ft | 374 kts | 355° |
| 2026-04-30 18:38 | 50.86456 | 14.18585 | 25920 ft | 393 kts | 335° |
| 2026-04-30 18:38 | 50.88713 | 14.16014 | 26309 ft | 401 kts | 330° |
| 2026-04-30 18:38 | 50.90943 | 14.13323 | 26736 ft | 404 kts | 330° |
| 2026-04-30 18:39 | 50.93145 | 14.10633 | 27153 ft | 406 kts | 330° |
| 2026-04-30 18:39 | 50.95383 | 14.07894 | 27562 ft | 408 kts | 330° |
| 2026-04-30 18:39 | 50.97640 | 14.05136 | 27971 ft | 410 kts | 330° |
| 2026-04-30 18:39 | 50.99907 | 14.02371 | 28378 ft | 412 kts | 330° |
| 2026-04-30 18:40 | 51.02186 | 13.99601 | 28765 ft | 414 kts | 330° |
| 2026-04-30 18:40 | 51.04473 | 13.96820 | 29156 ft | 416 kts | 330° |
| 2026-04-30 18:40 | 51.06777 | 13.94019 | 29540 ft | 418 kts | 330° |
| 2026-04-30 18:40 | 51.09091 | 13.91207 | 29918 ft | 420 kts | 330° |
| 2026-04-30 18:41 | 51.11418 | 13.88380 | 30285 ft | 422 kts | 330° |
| 2026-04-30 18:41 | 51.13752 | 13.85535 | 30575 ft | 423 kts | 330° |
| 2026-04-30 18:41 | 51.16086 | 13.82678 | 30819 ft | 424 kts | 330° |
| 2026-04-30 18:41 | 51.18432 | 13.79798 | 31065 ft | 426 kts | 330° |
| 2026-04-30 18:42 | 51.20816 | 13.76866 | 31314 ft | 428 kts | 330° |
| 2026-04-30 18:42 | 51.25542 | 13.71049 | 31436 ft | 429 kts | 330° |
| 2026-04-30 18:42 | 51.27867 | 13.68179 | 31434 ft | 415 kts | 330° |
| 2026-04-30 18:45 | 51.53440 | 13.36435 | 31431 ft | 425 kts | 329° |
| 2026-04-30 18:46 | 51.58104 | 13.30601 | 31430 ft | 425 kts | 329° |
| 2026-04-30 18:46 | 51.62760 | 13.24759 | 31426 ft | 424 kts | 329° |
| 2026-04-30 18:47 | 51.66658 | 13.19851 | 31419 ft | 424 kts | 329° |
| 2026-04-30 18:47 | 51.71270 | 13.14016 | 31396 ft | 424 kts | 328° |
| 2026-04-30 18:48 | 51.75922 | 13.08131 | 31467 ft | 426 kts | 328° |
| 2026-04-30 18:48 | 51.80635 | 13.02161 | 31659 ft | 435 kts | 328° |
| 2026-04-30 18:48 | 51.83019 | 12.99136 | 32006 ft | 435 kts | 328° |
| 2026-04-30 18:49 | 51.85391 | 12.96116 | 32382 ft | 434 kts | 328° |
| 2026-04-30 18:49 | 51.87763 | 12.93095 | 32776 ft | 433 kts | 328° |
| 2026-04-30 18:49 | 51.90129 | 12.90081 | 33155 ft | 432 kts | 328° |
| 2026-04-30 18:49 | 51.92488 | 12.87070 | 33541 ft | 431 kts | 328° |
| 2026-04-30 18:50 | 51.94838 | 12.84064 | 33930 ft | 430 kts | 327° |
| 2026-04-30 18:50 | 51.97190 | 12.81052 | 34308 ft | 430 kts | 327° |
| 2026-04-30 18:50 | 51.99536 | 12.78045 | 34415 ft | 430 kts | 327° |
| 2026-04-30 18:51 | 52.04227 | 12.72017 | 34446 ft | 430 kts | 327° |
| 2026-04-30 18:51 | 52.08903 | 12.65965 | 34438 ft | 430 kts | 326° |
| 2026-04-30 18:52 | 52.13581 | 12.59907 | 34436 ft | 430 kts | 326° |
| 2026-04-30 18:52 | 52.18257 | 12.53835 | 34438 ft | 430 kts | 326° |
| 2026-04-30 18:53 | 52.22931 | 12.47755 | 34427 ft | 430 kts | 326° |
| 2026-04-30 18:53 | 52.27601 | 12.41682 | 34405 ft | 429 kts | 326° |
| 2026-04-30 18:54 | 52.32269 | 12.35582 | 34410 ft | 430 kts | 326° |
| 2026-04-30 18:54 | 52.36940 | 12.29461 | 34405 ft | 431 kts | 325° |
| 2026-04-30 18:55 | 52.41609 | 12.23315 | 34408 ft | 431 kts | 325° |
| 2026-04-30 18:55 | 52.48614 | 12.14073 | 34418 ft | 431 kts | 325° |
| 2026-04-30 18:56 | 52.55609 | 12.04795 | 34397 ft | 431 kts | 324° |
| 2026-04-30 18:57 | 52.62611 | 11.95496 | 34412 ft | 432 kts | 324° |
| 2026-04-30 18:57 | 52.67278 | 11.89262 | 34322 ft | 433 kts | 324° |
| 2026-04-30 18:58 | 52.71950 | 11.83003 | 33768 ft | 433 kts | 324° |
| 2026-04-30 18:58 | 52.74287 | 11.79866 | 33497 ft | 433 kts | 324° |
| 2026-04-30 18:58 | 52.76624 | 11.76722 | 33215 ft | 434 kts | 324° |
| 2026-04-30 18:59 | 52.81305 | 11.70426 | 32701 ft | 434 kts | 324° |
| 2026-04-30 19:00 | 52.88358 | 11.60887 | 30775 ft | 438 kts | 324° |
| 2026-04-30 19:00 | 52.90697 | 11.57701 | 30158 ft | 432 kts | 324° |
| 2026-04-30 19:00 | 52.95291 | 11.51466 | 28904 ft | 421 kts | 324° |
| 2026-04-30 19:01 | 52.99769 | 11.45365 | 27694 ft | 412 kts | 324° |
| 2026-04-30 19:01 | 53.01968 | 11.42357 | 27106 ft | 408 kts | 324° |
| 2026-04-30 19:02 | 53.06305 | 11.36424 | 25955 ft | 400 kts | 325° |
| 2026-04-30 19:02 | 53.10568 | 11.30583 | 24823 ft | 394 kts | 325° |
| 2026-04-30 19:03 | 53.14877 | 11.25019 | 23434 ft | 391 kts | 329° |
| 2026-04-30 19:03 | 53.19352 | 11.19947 | 22162 ft | 387 kts | 330° |
| 2026-04-30 19:04 | 53.23798 | 11.14984 | 21022 ft | 382 kts | 330° |
| 2026-04-30 19:04 | 53.28147 | 11.09999 | 20043 ft | 377 kts | 329° |
| 2026-04-30 19:05 | 53.32434 | 11.04996 | 19277 ft | 375 kts | 329° |
| 2026-04-30 19:05 | 53.36606 | 11.00098 | 18882 ft | 354 kts | 329° |
| 2026-04-30 19:06 | 53.40445 | 10.95601 | 18414 ft | 327 kts | 330° |
| 2026-04-30 19:06 | 53.42313 | 10.93478 | 18068 ft | 321 kts | 335° |
| 2026-04-30 19:06 | 53.46355 | 10.90704 | 17441 ft | 308 kts | 345° |
| 2026-04-30 19:07 | 53.50188 | 10.88305 | 17131 ft | 283 kts | 344° |
| 2026-04-30 19:07 | 53.52017 | 10.87165 | 16930 ft | 279 kts | 345° |
| 2026-04-30 19:08 | 53.55680 | 10.84892 | 16200 ft | 283 kts | 345° |
| 2026-04-30 19:08 | 53.59407 | 10.82586 | 15458 ft | 285 kts | 345° |
| 2026-04-30 19:08 | 53.61244 | 10.81444 | 15100 ft | 278 kts | 345° |
| 2026-04-30 19:09 | 53.64799 | 10.79217 | 14393 ft | 272 kts | 345° |
| 2026-04-30 19:09 | 53.66572 | 10.78101 | 14013 ft | 271 kts | 345° |
| 2026-04-30 19:09 | 53.68337 | 10.76993 | 13618 ft | 270 kts | 345° |
| 2026-04-30 19:10 | 53.71874 | 10.74789 | 12912 ft | 271 kts | 345° |
| 2026-04-30 19:10 | 53.75384 | 10.72612 | 12399 ft | 266 kts | 345° |
| 2026-04-30 19:11 | 53.77118 | 10.71539 | 12146 ft | 264 kts | 344° |
| 2026-04-30 19:11 | 53.80352 | 10.68704 | 11648 ft | 269 kts | 315° |
| 2026-04-30 19:11 | 53.81280 | 10.65960 | 11484 ft | 274 kts | 288° |
| 2026-04-30 19:12 | 53.81399 | 10.62753 | 11460 ft | 277 kts | 259° |
| 2026-04-30 19:12 | 53.80666 | 10.59754 | 11464 ft | 278 kts | 233° |
| 2026-04-30 19:12 | 53.79486 | 10.57166 | 11464 ft | 278 kts | 230° |
| 2026-04-30 19:13 | 53.77081 | 10.52018 | 11454 ft | 280 kts | 230° |
| 2026-04-30 19:13 | 53.74667 | 10.46845 | 11455 ft | 280 kts | 230° |
| 2026-04-30 19:13 | 53.73469 | 10.44270 | 11453 ft | 279 kts | 230° |
| 2026-04-30 19:14 | 53.72271 | 10.41698 | 11455 ft | 278 kts | 230° |
| 2026-04-30 19:14 | 53.71076 | 10.39134 | 11454 ft | 278 kts | 230° |
| 2026-04-30 19:14 | 53.69880 | 10.36568 | 11452 ft | 278 kts | 230° |
| 2026-04-30 19:14 | 53.68686 | 10.34011 | 11271 ft | 276 kts | 230° |
| 2026-04-30 19:15 | 53.67501 | 10.31479 | 10985 ft | 275 kts | 230° |
| 2026-04-30 19:15 | 53.65139 | 10.26434 | 10406 ft | 272 kts | 230° |
| 2026-04-30 19:15 | 53.63968 | 10.23937 | 10113 ft | 271 kts | 230° |
| 2026-04-30 19:16 | 53.62805 | 10.21463 | 9790 ft | 269 kts | 230° |
| 2026-04-30 19:16 | 53.61647 | 10.18995 | 9468 ft | 268 kts | 230° |
| 2026-04-30 19:16 | 53.59348 | 10.14105 | 8819 ft | 265 kts | 229° |
| 2026-04-30 19:17 | 53.58207 | 10.11685 | 8489 ft | 263 kts | 229° |
| 2026-04-30 19:17 | 53.55941 | 10.06888 | 7825 ft | 261 kts | 229° |
| 2026-04-30 19:17 | 53.54813 | 10.04502 | 7485 ft | 260 kts | 229° |
| 2026-04-30 19:18 | 53.52934 | 10.00539 | 6961 ft | 258 kts | 229° |
| 2026-04-30 19:18 | 53.51461 | 9.97430 | 6515 ft | 256 kts | 229° |
| 2026-04-30 19:18 | 53.50360 | 9.95101 | 6202 ft | 253 kts | 229° |
| 2026-04-30 19:19 | 53.49278 | 9.92781 | 5921 ft | 251 kts | 229° |
| 2026-04-30 19:19 | 53.48203 | 9.90475 | 5675 ft | 250 kts | 229° |
| 2026-04-30 19:19 | 53.46077 | 9.85914 | 5169 ft | 246 kts | 229° |
| 2026-04-30 19:20 | 53.45027 | 9.83665 | 5023 ft | 245 kts | 229° |
| 2026-04-30 19:20 | 53.43979 | 9.81431 | 5008 ft | 244 kts | 229° |
| 2026-04-30 19:20 | 53.41874 | 9.76948 | 5011 ft | 244 kts | 229° |
| 2026-04-30 19:21 | 53.40821 | 9.74706 | 5014 ft | 245 kts | 229° |
| 2026-04-30 19:21 | 53.38716 | 9.70231 | 5006 ft | 245 kts | 229° |
| 2026-04-30 19:22 | 53.36741 | 9.65608 | 5005 ft | 247 kts | 249° |
| 2026-04-30 19:22 | 53.38696 | 9.58654 | 5007 ft | 234 kts | 347° |
| 2026-04-30 19:23 | 53.43037 | 9.60149 | 5005 ft | 212 kts | 24° |
| 2026-04-30 19:24 | 53.45252 | 9.63109 | 5005 ft | 206 kts | 53° |
| 2026-04-30 19:24 | 53.46172 | 9.64951 | 4832 ft | 206 kts | 53° |
| 2026-04-30 19:24 | 53.48016 | 9.68634 | 4321 ft | 205 kts | 52° |
| 2026-04-30 19:25 | 53.50630 | 9.73858 | 3520 ft | 187 kts | 52° |
| 2026-04-30 19:26 | 53.52276 | 9.77157 | 3025 ft | 183 kts | 52° |
| 2026-04-30 19:26 | 53.53901 | 9.80416 | 2533 ft | 181 kts | 52° |
| 2026-04-30 19:26 | 53.54706 | 9.82033 | 2288 ft | 180 kts | 52° |
| 2026-04-30 19:27 | 53.56269 | 9.85171 | 1807 ft | 164 kts | 53° |
| 2026-04-30 19:27 | 53.57634 | 9.87915 | 1378 ft | 144 kts | 53° |
| 2026-04-30 19:28 | 53.58268 | 9.89185 | 1192 ft | 140 kts | 53° |
| 2026-04-30 19:28 | 53.59301 | 9.91268 | 884 ft | 139 kts | 52° |
| 2026-04-30 19:29 | 53.60542 | 9.93760 | 523 ft | 138 kts | 51° |
| 2026-04-30 19:29 | 53.61164 | 9.95005 | 358 ft | 139 kts | 52° |
| 2026-04-30 19:30 | 53.62833 | 9.98418 | 44 ft | 85 kts | 51° |
| 2026-04-30 19:30 | 53.63087 | 9.99176 | 47 ft | 14 kts | 93° |
| 2026-04-30 19:31 | 53.63082 | 9.99320 | 47 ft | 5 kts | 82° |
| 2026-04-30 19:31 | 53.63088 | 9.99357 | 45 ft | 6 kts | 75° |
| 2026-04-30 19:31 | 53.63208 | 9.99643 | 48 ft | 10 kts | 50° |
| 2026-04-30 19:32 | 53.63217 | 9.99663 | 48 ft | 0 kts | 51° |
| 2026-04-30 19:32 | 53.63229 | 9.99684 | 48 ft | 10 kts | 46° |
| 2026-04-30 19:33 | 53.63291 | 9.99790 | 48 ft | 14 kts | 46° |
| 2026-04-30 19:33 | 53.63356 | 9.99917 | 48 ft | 14 kts | 50° |
| 2026-04-30 19:33 | 53.63416 | 10.00039 | 48 ft | 11 kts | 51° |
| 2026-04-30 19:33 | 53.63411 | 10.00149 | 48 ft | 11 kts | 148° |
| 2026-04-30 19:34 | 53.63337 | 10.00172 | 48 ft | 10 kts | 156° |
| 2026-04-30 19:34 | 53.63278 | 10.00221 | 48 ft | 9 kts | 155° |
| 2026-04-30 19:34 | 53.63244 | 10.00327 | 48 ft | 4 kts | 86° |
| 2026-04-30 19:35 | 53.63245 | 10.00357 | 48 ft | 2 kts | 86° |
| 2026-04-30 19:35 | 53.63245 | 10.00358 | 48 ft | 0 kts | 86° |